Time;durP1;ratioP1;P1;durP2;ratioP2;P2;SDS_P1;SDS_P2;PMS_P1;PMS_P2;Temp;Humidity;BMP_temperature;BMP_pressure;BME280_temperature;BME280_humidity;BME280_pressure;Samples;Min_cycle;Max_cycle;Signal;HPM_P1;HPM_P2
2021/09/28 00:00:10;;;;;;;15.77;10.03;;;11.70;99.90;;;;;;5089112;28;20549;-66
2021/09/28 00:02:36;;;;;;;25.77;16.93;;;11.70;99.90;;;;;;5071367;28;20174;-65
2021/09/28 00:05:02;;;;;;;26.17;21.57;;;11.70;99.90;;;;;;5071303;28;20190;-65
2021/09/28 00:07:27;;;;;;;28.43;25.77;;;11.70;99.90;;;;;;5072002;28;20170;-65
2021/09/28 00:09:53;;;;;;;34.27;30.80;;;11.70;99.90;;;;;;5070869;28;20270;-65
2021/09/28 00:12:19;;;;;;;35.97;32.80;;;11.60;99.90;;;;;;5090003;28;20196;-65
2021/09/28 00:14:45;;;;;;;37.30;33.77;;;11.60;99.90;;;;;;5091462;28;20643;-66
2021/09/28 00:17:12;;;;;;;31.13;26.57;;;11.60;99.90;;;;;;5073710;28;20769;-66
2021/09/28 00:19:38;;;;;;;31.37;28.27;;;11.60;99.90;;;;;;5077306;28;20189;-66
2021/09/28 00:22:04;;;;;;;32.40;29.70;;;11.50;99.90;;;;;;5091108;28;20177;-65
2021/09/28 00:24:30;;;;;;;29.80;24.10;;;11.60;99.90;;;;;;5084763;28;20170;-65
2021/09/28 00:26:56;;;;;;;25.17;22.57;;;11.60;99.90;;;;;;5070937;28;20553;-65
2021/09/28 00:29:22;;;;;;;26.43;11.87;;;11.50;99.90;;;;;;5072517;28;20186;-65
2021/09/28 00:31:47;;;;;;;24.80;14.67;;;11.50;99.90;;;;;;5091099;28;20626;-66
2021/09/28 00:34:13;;;;;;;23.07;13.80;;;11.50;99.90;;;;;;5089652;28;20170;-65
2021/09/28 00:36:39;;;;;;;14.40;10.17;;;11.50;99.90;;;;;;5071057;28;20228;-64
2021/09/28 00:39:04;;;;;;;25.77;11.73;;;11.50;99.90;;;;;;5071650;28;20202;-66
2021/09/28 00:41:30;;;;;;;20.30;13.60;;;11.50;99.90;;;;;;5094560;28;20173;-65
2021/09/28 00:43:56;;;;;;;19.00;12.60;;;11.50;99.90;;;;;;5086652;28;20279;-65
2021/09/28 00:46:23;;;;;;;21.70;14.57;;;11.50;99.90;;;;;;5074556;28;20204;-65
2021/09/28 00:48:49;;;;;;;26.40;19.13;;;11.50;99.90;;;;;;5081656;28;20609;-66
2021/09/28 00:51:16;;;;;;;21.77;12.70;;;11.50;99.90;;;;;;5094382;28;20193;-65
2021/09/28 00:53:43;;;;;;;21.37;14.90;;;11.50;99.90;;;;;;5088526;28;20197;-64
2021/09/28 00:56:14;;;;;;;28.10;24.40;;;11.50;99.90;;;;;;5074462;28;20211;-65
2021/09/28 00:58:40;;;;;;;26.10;16.83;;;11.50;99.90;;;;;;5079524;28;20603;-64
2021/09/28 01:01:06;;;;;;;21.77;13.43;;;11.50;99.90;;;;;;5094145;28;20188;-65
2021/09/28 01:03:33;;;;;;;25.80;17.07;;;11.50;99.90;;;;;;5090739;28;20171;-64
2021/09/28 01:05:59;;;;;;;23.33;18.27;;;11.50;99.90;;;;;;5074064;28;20213;-66
2021/09/28 01:08:26;;;;;;;29.93;18.50;;;11.50;99.90;;;;;;5075898;28;20186;-66
2021/09/28 01:10:52;;;;;;;26.43;14.50;;;11.50;99.90;;;;;;5093974;28;20174;-65
2021/09/28 01:13:18;;;;;;;26.80;17.00;;;11.50;99.90;;;;;;5093650;28;20208;-65
2021/09/28 01:16:07;;;;;;;30.43;15.63;;;11.50;99.90;;;;;;5073997;28;20210;-64
2021/09/28 01:18:34;;;;;;;14.20;11.40;;;11.50;99.90;;;;;;5077452;28;20216;-65
2021/09/28 01:21:01;;;;;;;24.33;12.60;;;11.50;99.90;;;;;;5093693;28;20185;-65
2021/09/28 01:23:27;;;;;;;16.93;10.17;;;11.40;99.90;;;;;;5082217;28;20170;-64
2021/09/28 01:25:52;;;;;;;28.63;12.03;;;11.40;99.90;;;;;;5073822;28;20197;-65
2021/09/28 01:28:18;;;;;;;24.70;12.43;;;11.40;99.90;;;;;;5083496;28;20526;-65
2021/09/28 01:30:44;;;;;;;21.27;11.70;;;11.40;99.90;;;;;;5093796;28;20538;-65
2021/09/28 01:33:10;;;;;;;18.00;9.93;;;11.30;99.90;;;;;;5085369;28;20235;-65
2021/09/28 01:35:38;;;;;;;19.60;10.70;;;11.30;99.90;;;;;;5073708;28;20170;-65
2021/09/28 01:38:04;;;;;;;21.50;11.37;;;11.30;99.90;;;;;;5080427;28;20537;-65
2021/09/28 01:40:30;;;;;;;18.63;11.97;;;11.30;99.90;;;;;;5092707;28;20759;-64
2021/09/28 01:42:56;;;;;;;25.90;11.67;;;11.20;99.90;;;;;;5088395;28;20195;-65
2021/09/28 01:45:21;;;;;;;26.90;11.93;;;11.20;99.90;;;;;;5090882;28;20201;-64
2021/09/28 01:47:47;;;;;;;29.93;13.10;;;11.20;99.90;;;;;;5078779;28;20174;-64
2021/09/28 01:50:13;;;;;;;23.83;12.40;;;11.20;99.90;;;;;;5072710;28;20222;-65
2021/09/28 01:52:39;;;;;;;30.53;13.10;;;11.20;99.90;;;;;;5086122;28;20526;-65
2021/09/28 01:55:07;;;;;;;23.00;14.07;;;11.20;99.90;;;;;;5093260;28;20173;-65
2021/09/28 01:57:34;;;;;;;19.70;12.93;;;11.20;99.90;;;;;;5081827;28;20213;-64
2021/09/28 02:00:04;;;;;;;23.60;14.50;;;11.20;99.90;;;;;;5072893;28;20228;-65
2021/09/28 02:02:29;;;;;;;27.03;15.13;;;11.20;99.90;;;;;;5083525;28;20203;-65
2021/09/28 02:04:55;;;;;;;23.27;12.53;;;11.20;99.90;;;;;;5082270;28;20198;-65
2021/09/28 02:07:21;;;;;;;23.37;17.63;;;11.20;99.90;;;;;;5081671;28;20171;-65
2021/09/28 02:09:46;;;;;;;25.33;22.53;;;11.20;99.90;;;;;;5092758;28;20191;-66
2021/09/28 02:12:12;;;;;;;31.20;27.03;;;11.20;99.90;;;;;;5086263;28;20576;-64
2021/09/28 02:14:37;;;;;;;37.57;25.67;;;11.20;99.90;;;;;;5073098;28;20166;-64
2021/09/28 02:17:03;;;;;;;34.03;27.43;;;11.20;99.90;;;;;;5088797;28;20181;-64
2021/09/28 02:19:29;;;;;;;29.47;26.00;;;11.30;99.90;;;;;;5092751;28;20192;-64
2021/09/28 02:21:54;;;;;;;31.73;28.33;;;11.20;99.90;;;;;;5078179;28;20185;-66
2021/09/28 02:24:21;;;;;;;28.20;25.23;;;11.30;99.90;;;;;;5072774;28;20170;-65
2021/09/28 02:26:47;;;;;;;29.43;26.67;;;11.30;99.90;;;;;;5085310;28;20239;-65
2021/09/28 02:29:12;;;;;;;38.10;23.73;;;11.30;99.90;;;;;;5092593;28;20193;-64
2021/09/28 02:31:38;;;;;;;34.70;18.23;;;11.30;99.90;;;;;;5081356;28;20184;-64
2021/09/28 02:34:06;;;;;;;31.63;17.03;;;11.20;99.90;;;;;;5072527;28;20628;-65
2021/09/28 02:36:36;;;;;;;26.30;14.07;;;11.10;99.90;;;;;;5082117;28;20264;-65
2021/09/28 02:39:03;;;;;;;30.17;15.93;;;11.10;99.90;;;;;;5091060;28;20752;-64
2021/09/28 02:41:28;;;;;;;32.90;23.93;;;11.10;99.90;;;;;;5083700;28;20608;-64
2021/09/28 02:43:54;;;;;;;36.60;32.90;;;11.10;99.90;;;;;;5083697;28;20264;-64
2021/09/28 02:46:20;;;;;;;37.53;28.50;;;11.10;99.90;;;;;;5074050;28;20212;-65
2021/09/28 02:48:45;;;;;;;33.57;29.80;;;11.10;99.90;;;;;;5072064;28;20757;-65
2021/09/28 02:51:11;;;;;;;36.13;29.47;;;11.00;99.90;;;;;;5087904;28;20664;-64
2021/09/28 02:53:36;;;;;;;31.43;23.63;;;11.00;99.90;;;;;;5092524;28;20174;-64
2021/09/28 02:56:02;;;;;;;32.90;20.77;;;11.00;99.90;;;;;;5077586;28;20185;-64
2021/09/28 02:58:28;;;;;;;28.63;17.80;;;11.00;99.90;;;;;;5072058;28;20200;-66
2021/09/28 03:00:53;;;;;;;32.40;18.50;;;11.00;99.90;;;;;;5084416;28;20209;-64
2021/09/28 03:03:19;;;;;;;34.70;18.17;;;11.00;99.90;;;;;;5091394;28;20166;-65
2021/09/28 03:05:44;;;;;;;31.63;17.70;;;11.10;99.90;;;;;;5080876;28;20214;-65
2021/09/28 03:08:11;;;;;;;28.53;18.43;;;11.10;99.90;;;;;;5071878;28;20251;-64
2021/09/28 03:10:37;;;;;;;28.60;18.27;;;11.10;99.90;;;;;;5080651;28;20172;-65
2021/09/28 03:13:03;;;;;;;28.80;19.53;;;11.00;99.90;;;;;;5091931;28;20526;-65
2021/09/28 03:15:29;;;;;;;32.63;18.87;;;11.00;99.90;;;;;;5073145;28;20185;-64
2021/09/28 03:17:54;;;;;;;37.60;20.40;;;10.90;99.90;;;;;;5071654;28;20185;-65
2021/09/28 03:20:20;;;;;;;37.17;19.57;;;10.90;99.90;;;;;;5088218;28;20205;-66
2021/09/28 03:22:45;;;;;;;31.37;20.57;;;10.90;99.90;;;;;;5091929;28;20176;-65
2021/09/28 03:25:11;;;;;;;32.40;19.40;;;10.90;99.90;;;;;;5076504;28;20209;-63
2021/09/28 03:27:37;;;;;;;27.57;17.33;;;10.90;99.90;;;;;;5076128;28;20173;-65
2021/09/28 03:30:05;;;;;;;26.67;19.03;;;10.90;99.90;;;;;;5091467;28;20189;-65
2021/09/28 03:32:31;;;;;;;32.10;19.67;;;10.90;99.90;;;;;;5088664;28;20541;-66
2021/09/28 03:34:56;;;;;;;33.77;18.37;;;10.90;99.90;;;;;;5070485;28;20181;-66
2021/09/28 03:37:22;;;;;;;34.97;18.93;;;10.90;99.90;;;;;;5072452;28;20162;-64
2021/09/28 03:39:48;;;;;;;22.47;16.87;;;10.90;99.90;;;;;;5104715;22;20679;-69
2021/09/28 03:42:13;;;;;;;31.73;17.40;;;10.80;99.90;;;;;;5087255;28;20170;-70
2021/09/28 03:44:39;;;;;;;27.10;20.63;;;10.80;99.90;;;;;;5051941;28;20526;-69
2021/09/28 03:47:05;;;;;;;37.53;20.23;;;10.70;99.90;;;;;;5049999;28;20174;-70
2021/09/28 03:49:30;;;;;;;29.37;18.43;;;10.70;99.90;;;;;;5073603;28;20201;-68
2021/09/28 03:51:56;;;;;;;35.27;18.20;;;10.70;99.90;;;;;;5091480;28;20166;-68
2021/09/28 03:54:21;;;;;;;31.03;17.13;;;10.70;99.90;;;;;;5073938;28;20174;-69
2021/09/28 03:56:47;;;;;;;33.27;17.03;;;10.60;99.90;;;;;;5073801;28;20181;-74
2021/09/28 03:59:12;;;;;;;28.93;15.33;;;10.60;99.90;;;;;;5087008;28;20181;-74
2021/09/28 04:01:38;;;;;;;24.63;15.53;;;10.50;99.90;;;;;;5091937;28;20249;-66
2021/09/28 04:04:04;;;;;;;23.93;15.50;;;10.60;99.90;;;;;;5078681;28;20213;-66
2021/09/28 04:06:29;;;;;;;17.70;15.30;;;10.50;99.90;;;;;;5069944;28;20198;-65
2021/09/28 04:08:55;;;;;;;22.33;17.60;;;10.50;99.90;;;;;;5081512;28;20181;-65
2021/09/28 04:11:21;;;;;;;27.77;18.37;;;10.50;99.90;;;;;;5089935;28;20173;-65
2021/09/28 04:13:48;;;;;;;25.03;14.43;;;10.50;99.90;;;;;;5081801;28;20584;-66
2021/09/28 04:16:16;;;;;;;20.70;11.23;;;10.40;99.90;;;;;;5075102;28;20538;-66
2021/09/28 04:18:43;;;;;;;16.73;11.87;;;10.40;99.90;;;;;;5081399;28;20178;-69
2021/09/28 04:21:08;;;;;;;21.03;12.77;;;10.40;99.90;;;;;;5088974;28;20530;-66
2021/09/28 04:23:34;;;;;;;22.57;10.73;;;10.30;99.90;;;;;;5073846;28;20177;-65
2021/09/28 04:26:00;;;;;;;21.63;15.07;;;10.30;99.90;;;;;;5075197;28;20605;-65
2021/09/28 04:28:25;;;;;;;26.50;10.93;;;10.30;99.90;;;;;;5075004;28;20640;-66
2021/09/28 04:30:51;;;;;;;25.73;14.87;;;10.30;99.90;;;;;;5073504;28;20285;-65
2021/09/28 04:33:16;;;;;;;27.60;13.20;;;10.20;99.90;;;;;;5093742;28;20260;-66
2021/09/28 04:35:42;;;;;;;17.50;12.23;;;10.20;99.90;;;;;;5093779;28;20182;-68
2021/09/28 04:38:08;;;;;;;26.27;14.47;;;10.20;99.90;;;;;;5075458;28;20269;-65
2021/09/28 04:40:33;;;;;;;22.90;12.63;;;10.10;99.90;;;;;;5072870;28;20210;-66
2021/09/28 04:42:59;;;;;;;20.67;11.03;;;10.10;99.90;;;;;;5090553;28;20327;-68
2021/09/28 04:45:25;;;;;;;30.10;11.30;;;10.10;99.90;;;;;;5082333;28;20234;-66
2021/09/28 04:47:50;;;;;;;22.93;11.10;;;10.00;99.90;;;;;;5073260;28;20177;-66
2021/09/28 04:50:16;;;;;;;20.00;10.43;;;10.00;99.90;;;;;;5084451;28;20197;-66
2021/09/28 04:52:41;;;;;;;22.20;11.40;;;9.90;99.90;;;;;;5094757;28;20173;-66
2021/09/28 04:55:07;;;;;;;17.63;11.20;;;9.90;99.90;;;;;;5084412;28;20182;-66
2021/09/28 04:57:33;;;;;;;21.50;11.40;;;9.90;99.90;;;;;;5073033;28;20178;-66
2021/09/28 05:00:00;;;;;;;23.57;11.30;;;9.90;99.90;;;;;;5080534;28;20209;-66
2021/09/28 05:02:25;;;;;;;27.13;11.60;;;9.80;99.90;;;;;;5094666;28;20201;-65
2021/09/28 05:04:51;;;;;;;22.57;12.97;;;9.80;99.90;;;;;;5087561;28;20185;-67
2021/09/28 05:07:17;;;;;;;19.33;10.83;;;9.80;99.90;;;;;;5072958;28;20333;-69
2021/09/28 05:09:43;;;;;;;26.37;12.30;;;9.80;99.90;;;;;;5086734;28;20689;-66
2021/09/28 05:12:09;;;;;;;15.93;10.40;;;9.80;99.90;;;;;;5094414;28;20166;-66
2021/09/28 05:14:35;;;;;;;14.47;10.93;;;9.80;99.90;;;;;;5081449;28;20173;-65
2021/09/28 05:17:01;;;;;;;21.83;10.53;;;9.80;99.90;;;;;;5072615;28;20600;-71
2021/09/28 05:19:26;;;;;;;19.33;11.83;;;9.70;99.90;;;;;;5083367;28;20204;-66
2021/09/28 05:21:52;;;;;;;16.37;11.83;;;9.70;99.90;;;;;;5092580;28;20196;-69
2021/09/28 05:24:18;;;;;;;16.87;11.63;;;9.70;99.90;;;;;;5072719;28;20526;-66
2021/09/28 05:26:46;;;;;;;24.60;11.90;;;9.60;99.90;;;;;;5076241;28;20788;-68
2021/09/28 05:29:12;;;;;;;23.33;11.17;;;9.60;99.90;;;;;;5073001;28;20269;-67
2021/09/28 05:31:37;;;;;;;20.53;10.87;;;9.60;99.90;;;;;;5075747;28;20641;-65
2021/09/28 05:34:03;;;;;;;25.23;11.40;;;9.70;99.90;;;;;;5074189;28;20182;-66
2021/09/28 05:36:28;;;;;;;20.43;10.50;;;9.70;99.90;;;;;;5079839;28;20169;-65
2021/09/28 05:38:54;;;;;;;17.70;11.07;;;9.60;99.90;;;;;;5093873;28;20537;-65
2021/09/28 05:41:20;;;;;;;17.43;11.63;;;9.60;99.90;;;;;;5087430;28;20186;-66
2021/09/28 05:43:45;;;;;;;18.97;11.13;;;9.50;99.90;;;;;;5073633;28;20162;-64
2021/09/28 05:46:11;;;;;;;16.13;12.50;;;9.50;99.90;;;;;;5080804;28;20658;-64
2021/09/28 05:48:37;;;;;;;16.10;11.20;;;9.50;99.90;;;;;;5078566;28;20228;-66
2021/09/28 05:51:15;;;;;;;19.87;13.40;;;9.50;99.90;;;;;;5071643;28;20201;-66
2021/09/28 05:53:41;;;;;;;21.37;12.70;;;9.60;99.90;;;;;;5072286;28;20181;-66
2021/09/28 05:56:06;;;;;;;22.63;13.20;;;9.60;99.90;;;;;;5072866;28;20216;-66
2021/09/28 05:58:32;;;;;;;22.63;11.37;;;9.60;99.90;;;;;;5083130;28;20201;-66
2021/09/28 06:00:58;;;;;;;19.80;12.70;;;9.60;99.90;;;;;;5073608;28;20221;-66
2021/09/28 06:03:23;;;;;;;23.37;12.17;;;9.60;99.90;;;;;;5073062;28;20181;-66
2021/09/28 06:05:49;;;;;;;23.30;11.60;;;9.60;99.90;;;;;;5071056;28;20583;-66
2021/09/28 06:08:15;;;;;;;19.97;12.80;;;9.70;99.90;;;;;;5072958;28;20166;-66
2021/09/28 06:10:42;;;;;;;21.40;12.10;;;9.70;99.90;;;;;;5072706;28;20621;-66
2021/09/28 06:13:07;;;;;;;21.53;12.77;;;9.70;99.90;;;;;;5073907;28;20603;-66
2021/09/28 06:15:33;;;;;;;21.83;10.73;;;9.80;99.90;;;;;;5087690;28;20189;-66
2021/09/28 06:17:59;;;;;;;13.67;10.40;;;9.90;99.90;;;;;;5072805;28;20179;-67
2021/09/28 06:20:24;;;;;;;21.77;11.17;;;9.90;99.90;;;;;;5091029;28;20200;-67
2021/09/28 06:22:50;;;;;;;28.63;12.47;;;10.10;99.90;;;;;;5092770;28;20173;-66
2021/09/28 06:25:16;;;;;;;29.17;11.37;;;10.20;99.90;;;;;;5072954;28;20197;-66
2021/09/28 06:27:41;;;;;;;22.57;11.07;;;10.20;99.90;;;;;;5071179;28;20737;-66
2021/09/28 06:30:07;;;;;;;21.97;10.70;;;10.30;99.90;;;;;;5089674;28;20197;-66
2021/09/28 06:32:33;;;;;;;20.80;13.00;;;10.40;99.90;;;;;;5092737;28;20197;-66
2021/09/28 06:34:59;;;;;;;25.80;12.37;;;10.50;99.90;;;;;;5075332;28;20174;-66
2021/09/28 06:37:25;;;;;;;22.07;11.87;;;10.60;99.90;;;;;;5072216;28;20174;-66
2021/09/28 06:39:50;;;;;;;18.00;9.83;;;10.70;99.90;;;;;;5085891;28;20666;-66
2021/09/28 06:42:16;;;;;;;21.20;10.63;;;10.90;99.90;;;;;;5088725;28;20269;-67
2021/09/28 06:44:42;;;;;;;17.93;9.57;;;11.20;99.90;;;;;;5074993;28;20249;-66
2021/09/28 06:47:08;;;;;;;15.93;8.17;;;11.70;99.90;;;;;;5092229;28;20197;-66
2021/09/28 06:49:33;;;;;;;11.97;7.43;;;12.20;99.90;;;;;;5091261;28;20577;-66
2021/09/28 06:51:59;;;;;;;15.40;7.50;;;12.80;99.90;;;;;;5070714;28;20175;-67
2021/09/28 06:54:25;;;;;;;13.33;7.27;;;13.40;99.90;;;;;;5072092;28;20174;-67
2021/09/28 06:56:50;;;;;;;13.73;6.67;;;13.90;99.90;;;;;;5072875;28;20224;-67
2021/09/28 06:59:18;;;;;;;12.27;7.20;;;14.30;99.90;;;;;;5070149;28;20614;-67
2021/09/28 07:01:44;;;;;;;7.17;6.47;;;14.50;99.90;;;;;;5087630;28;20177;-67
2021/09/28 07:04:09;;;;;;;12.20;6.30;;;14.80;99.90;;;;;;5092118;28;20249;-67
2021/09/28 07:06:35;;;;;;;8.60;6.33;;;14.80;99.90;;;;;;5087202;28;20654;-67
2021/09/28 07:09:01;;;;;;;12.03;6.60;;;14.90;99.90;;;;;;5088477;28;20302;-67
2021/09/28 07:11:27;;;;;;;8.27;6.13;;;15.20;99.90;;;;;;5071413;28;20166;-67
2021/09/28 07:13:53;;;;;;;10.10;6.00;;;15.40;99.90;;;;;;5071131;28;20257;-67
2021/09/28 07:16:20;;;;;;;9.50;6.43;;;15.70;99.90;;;;;;5091865;28;20169;-67
2021/09/28 07:18:46;;;;;;;10.20;6.17;;;16.00;99.90;;;;;;5091695;28;20162;-67
2021/09/28 07:21:12;;;;;;;6.77;5.40;;;16.40;99.90;;;;;;5071439;28;20205;-67
2021/09/28 07:23:38;;;;;;;9.97;5.53;;;16.70;99.90;;;;;;5080557;28;20554;-67
2021/09/28 07:26:05;;;;;;;10.27;5.47;;;17.10;99.90;;;;;;5090317;28;20292;-67
2021/09/28 07:28:30;;;;;;;9.17;6.30;;;17.20;99.90;;;;;;5082984;28;20181;-67
2021/09/28 07:30:56;;;;;;;12.53;5.60;;;17.50;99.90;;;;;;5081296;28;20193;-67
2021/09/28 07:33:22;;;;;;;8.33;5.03;;;17.90;99.90;;;;;;5085788;28;20638;-67
2021/09/28 07:35:48;;;;;;;6.17;4.57;;;18.30;99.90;;;;;;5071433;28;20551;-67
2021/09/28 07:38:16;;;;;;;7.77;5.37;;;18.50;99.90;;;;;;5086502;28;20512;-67
2021/09/28 07:40:45;;;;;;;7.03;5.33;;;18.60;99.90;;;;;;5091190;28;20581;-67
2021/09/28 07:43:11;;;;;;;11.20;5.50;;;18.60;99.90;;;;;;5076960;28;20178;-67
2021/09/28 07:45:38;;;;;;;7.90;5.40;;;18.70;99.90;;;;;;5076215;28;20209;-67
2021/09/28 07:48:04;;;;;;;5.40;4.70;;;18.60;99.90;;;;;;5079945;28;20186;-67
2021/09/28 07:50:30;;;;;;;8.23;5.00;;;18.50;99.90;;;;;;5071944;28;20198;-67
2021/09/28 07:52:56;;;;;;;10.00;5.50;;;18.50;99.90;;;;;;5076873;28;20181;-67
2021/09/28 07:55:23;;;;;;;8.30;5.87;;;18.60;99.90;;;;;;5089776;28;20185;-67
2021/09/28 07:57:49;;;;;;;9.27;5.93;;;18.70;99.90;;;;;;5091362;28;20649;-67
2021/09/28 08:00:15;;;;;;;8.57;5.57;;;18.90;99.90;;;;;;5072409;28;20198;-67
2021/09/28 08:02:41;;;;;;;12.37;5.50;;;19.10;99.90;;;;;;5104886;28;20319;-67
2021/09/28 08:05:08;;;;;;;7.20;5.10;;;19.20;99.90;;;;;;5080325;28;20285;-67
2021/09/28 08:07:34;;;;;;;11.20;5.43;;;19.50;99.90;;;;;;5079106;28;20202;-67
2021/09/28 08:10:00;;;;;;;10.57;5.60;;;19.80;99.90;;;;;;5074409;28;20198;-67
2021/09/28 08:12:26;;;;;;;7.60;5.27;;;20.00;99.90;;;;;;5088615;28;20563;-67
2021/09/28 08:14:53;;;;;;;10.82;4.80;;;20.20;99.90;;;;;;5074481;28;20178;-67
2021/09/28 08:17:19;;;;;;;9.67;5.30;;;20.30;99.90;;;;;;5071690;28;20163;-67
2021/09/28 08:19:49;;;;;;;9.70;5.87;;;20.30;99.90;;;;;;5090834;28;20189;-67
2021/09/28 08:22:15;;;;;;;9.63;5.43;;;20.20;99.90;;;;;;5082789;28;20177;-67
2021/09/28 08:24:42;;;;;;;9.77;5.90;;;20.30;99.90;;;;;;5086809;28;20174;-67
2021/09/28 08:30:09;;;;;;;8.07;5.43;;;20.30;99.90;;;;;;5033119;28;20199;-67
2021/09/28 08:32:36;;;;;;;6.77;5.53;;;20.40;99.90;;;;;;5084213;28;20623;-66
2021/09/28 08:35:03;;;;;;;11.07;5.40;;;20.40;99.90;;;;;;5079200;28;20182;-67
2021/09/28 08:37:28;;;;;;;8.63;5.43;;;20.60;99.90;;;;;;5072860;28;20712;-67
2021/09/28 08:39:55;;;;;;;12.47;5.17;;;20.60;99.90;;;;;;5070310;28;20296;-67
2021/09/28 08:42:21;;;;;;;10.77;5.50;;;20.70;99.90;;;;;;5072506;28;20178;-67
2021/09/28 08:44:47;;;;;;;8.90;5.83;;;20.70;99.90;;;;;;5076349;28;20181;-67
2021/09/28 08:47:13;;;;;;;6.33;4.93;;;20.80;99.90;;;;;;5079600;28;20182;-67
2021/09/28 08:49:40;;;;;;;13.07;5.45;;;21.00;99.90;;;;;;5069772;28;20205;-67
2021/09/28 08:52:06;;;;;;;9.18;5.03;;;21.10;99.90;;;;;;5079391;28;20181;-67
2021/09/28 08:54:32;;;;;;;8.65;4.85;;;21.30;99.90;;;;;;5066270;28;20186;-67
2021/09/28 08:56:58;;;;;;;8.07;5.18;;;21.40;99.90;;;;;;5050742;28;20178;-67
2021/09/28 08:59:44;;;;;;;8.40;5.47;;;21.30;99.90;;;;;;5077415;28;20690;-66
2021/09/28 09:02:10;;;;;;;7.27;5.40;;;21.10;99.90;;;;;;5053439;28;20171;-67
2021/09/28 09:04:36;;;;;;;11.63;5.32;;;21.00;99.90;;;;;;5062672;28;20201;-66
2021/09/28 09:07:25;;;;;;;7.97;5.40;;;21.10;99.90;;;;;;5074128;28;20238;-67
2021/09/28 09:09:51;;;;;;;10.45;6.38;;;21.20;99.90;;;;;;5073004;28;20198;-66
2021/09/28 09:12:41;;;;;;;13.52;6.15;;;21.10;99.90;;;;;;5074168;28;20166;-67
2021/09/28 09:15:31;;;;;;;10.07;5.57;;;21.20;99.90;;;;;;5084501;28;20200;-66
2021/09/28 09:18:00;;;;;;;8.77;5.73;;;21.10;99.90;;;;;;5094167;28;20181;-66
2021/09/28 09:20:35;;;;;;;8.70;5.22;;;21.30;99.90;;;;;;5074605;28;20217;-67
2021/09/28 09:23:13;;;;;;;10.33;5.67;;;21.40;99.90;;;;;;5084498;28;20182;-67
2021/09/28 09:25:38;;;;;;;10.53;6.47;;;21.20;99.90;;;;;;5075041;28;20577;-67
2021/09/28 09:28:23;;;;;;;13.20;6.10;;;21.00;99.90;;;;;;5082134;28;20180;-67
2021/09/28 09:30:49;;;;;;;9.87;6.07;;;21.20;99.90;;;;;;5078678;28;20643;-66
2021/09/28 09:33:22;;;;;;;9.17;5.70;;;21.40;99.90;;;;;;5073808;28;20247;-67
2021/09/28 09:35:57;;;;;;;11.07;5.40;;;21.20;99.90;;;;;;5086398;28;20264;-66
2021/09/28 09:38:23;;;;;;;9.40;5.80;;;21.10;99.90;;;;;;5079641;28;20610;-66
2021/09/28 09:40:49;;;;;;;13.17;6.30;;;20.90;99.90;;;;;;5120273;22;20309;-65
2021/09/28 09:43:17;;;;;;;13.70;5.90;;;21.00;99.90;;;;;;5071824;28;20181;-67
2021/09/28 09:45:43;;;;;;;10.10;5.10;;;21.10;99.90;;;;;;5066657;28;20667;-65
2021/09/28 09:48:25;;;;;;;8.47;5.90;;;21.20;99.90;;;;;;5073546;28;20198;-65
2021/09/28 09:50:56;;;;;;;12.43;5.53;;;21.20;99.90;;;;;;5058001;28;20562;-65
2021/09/28 09:53:22;;;;;;;10.67;5.90;;;21.20;99.90;;;;;;5062925;28;20663;-64
2021/09/28 09:55:48;;;;;;;10.53;5.40;;;21.40;99.90;;;;;;5073174;28;20170;-65
2021/09/28 09:58:14;;;;;;;13.60;6.80;;;21.50;99.90;;;;;;5069492;28;20167;-63
2021/09/28 10:00:40;;;;;;;13.57;5.63;;;21.40;99.90;;;;;;5056294;28;20206;-63
2021/09/28 10:03:08;;;;;;;11.37;5.73;;;21.40;99.90;;;;;;5054170;28;20987;-63
2021/09/28 10:05:34;;;;;;;12.15;5.97;;;21.30;99.90;;;;;;5058520;28;20206;-63
2021/09/28 10:08:04;;;;;;;15.97;5.60;;;21.50;99.90;;;;;;5052783;28;20177;-63
2021/09/28 10:10:31;;;;;;;11.97;5.40;;;21.60;99.90;;;;;;5053284;28;20237;-63
2021/09/28 10:12:57;;;;;;;12.40;6.13;;;21.60;99.90;;;;;;5053621;28;20194;-64
2021/09/28 10:15:22;;;;;;;10.15;5.68;;;21.60;99.90;;;;;;5052778;28;20217;-64
2021/09/28 10:17:48;;;;;;;9.70;5.30;;;21.80;99.90;;;;;;5052711;28;20262;-64
2021/09/28 10:20:23;;;;;;;15.20;6.18;;;21.90;99.90;;;;;;5060975;28;20202;-64
2021/09/28 10:22:55;;;;;;;12.30;5.90;;;22.10;99.90;;;;;;5072894;28;20565;-64
2021/09/28 10:25:23;;;;;;;8.45;5.22;;;22.00;99.90;;;;;;5063562;28;20293;-63
2021/09/28 10:28:02;;;;;;;12.87;6.03;;;21.80;99.90;;;;;;5067130;28;20196;-63
2021/09/28 10:30:31;;;;;;;10.53;6.57;;;21.10;99.90;;;;;;5070507;28;20190;-64
2021/09/28 10:32:57;;;;;;;18.70;7.00;;;20.80;99.90;;;;;;5072436;28;20200;-64
2021/09/28 10:35:24;;;;;;;13.40;5.97;;;20.80;99.90;;;;;;5052609;28;20182;-64
2021/09/28 10:37:59;;;;;;;14.30;6.77;;;20.90;99.90;;;;;;5067150;28;20232;-64
2021/09/28 10:40:30;;;;;;;12.87;6.60;;;21.10;99.90;;;;;;5071865;28;20201;-64
2021/09/28 10:42:56;;;;;;;11.83;6.73;;;21.20;99.90;;;;;;5070573;28;20182;-65
2021/09/28 10:45:44;;;;;;;15.60;6.47;;;21.40;99.90;;;;;;5070504;28;20199;-64
2021/09/28 10:48:34;;;;;;;10.27;6.27;;;21.60;99.90;;;;;;5071205;28;20235;-65
2021/09/28 10:51:23;;;;;;;19.65;6.15;;;21.80;99.90;;;;;;5062576;28;20605;-66
2021/09/28 10:53:54;;;;;;;10.85;5.40;;;22.10;99.90;;;;;;5052473;28;20187;-66
2021/09/28 10:56:20;;;;;;;10.75;5.57;;;22.50;99.90;;;;;;5052229;28;20693;-65
2021/09/28 10:58:49;;;;;;;13.35;6.05;;;22.90;99.90;;;;;;5060911;28;20181;-65
2021/09/28 11:01:14;;;;;;;11.18;6.18;;;22.80;99.90;;;;;;5062075;28;20221;-66
2021/09/28 11:03:55;;;;;;;11.63;5.85;;;22.80;99.90;;;;;;5060111;28;20182;-65
2021/09/28 11:06:40;;;;;;;7.25;5.32;;;22.70;99.90;;;;;;5051961;28;20213;-66
2021/09/28 11:09:07;;;;;;;12.70;6.22;;;23.10;99.90;;;;;;5053455;28;20171;-65
2021/09/28 11:11:33;;;;;;;8.32;4.95;;;23.30;99.90;;;;;;5071553;28;20290;-67
2021/09/28 11:14:04;;;;;;;11.63;6.70;;;23.70;99.90;;;;;;5070829;28;20193;-66
2021/09/28 11:16:53;;;;;;;10.18;6.28;;;23.70;99.90;;;;;;5051835;28;20250;-65
2021/09/28 11:19:19;;;;;;;11.15;6.03;;;23.50;99.90;;;;;;5051345;28;20182;-65
2021/09/28 11:21:47;;;;;;;12.15;6.25;;;23.30;99.90;;;;;;5051548;28;20189;-65
2021/09/28 11:24:17;;;;;;;13.02;6.45;;;23.00;99.90;;;;;;5069883;28;20185;-64
2021/09/28 11:26:43;;;;;;;8.48;5.53;;;22.90;99.90;;;;;;5071738;28;20241;-64
2021/09/28 11:29:19;;;;;;;10.05;6.35;;;22.40;99.90;;;;;;5053137;28;20270;-64
2021/09/28 11:31:45;;;;;;;13.47;6.80;;;22.20;99.90;;;;;;5051420;28;20278;-64
2021/09/28 11:34:10;;;;;;;11.53;6.43;;;21.90;99.90;;;;;;5069157;28;20269;-64
2021/09/28 11:36:41;;;;;;;13.50;6.50;;;21.70;99.90;;;;;;5072093;28;20182;-64
2021/09/28 11:39:14;;;;;;;12.33;6.30;;;21.60;99.90;;;;;;5070115;28;20195;-63
2021/09/28 11:41:42;;;;;;;15.30;7.33;;;21.60;99.90;;;;;;5071699;28;20198;-65
2021/09/28 11:44:08;;;;;;;12.17;6.20;;;21.80;99.90;;;;;;5055209;28;20544;-66
2021/09/28 11:46:35;;;;;;;14.47;6.30;;;21.80;99.90;;;;;;5051377;28;20213;-65
2021/09/28 11:49:07;;;;;;;10.13;6.07;;;21.60;99.90;;;;;;5066155;28;20186;-64
2021/09/28 11:51:32;;;;;;;10.03;6.37;;;21.40;99.90;;;;;;5071326;28;20276;-64
2021/09/28 11:54:04;;;;;;;9.87;6.70;;;21.40;99.90;;;;;;5070023;28;20209;-65
2021/09/28 11:56:35;;;;;;;12.00;6.30;;;21.70;99.90;;;;;;5071497;28;20205;-63
2021/09/28 11:59:02;;;;;;;12.43;6.33;;;21.80;99.90;;;;;;5057119;28;20580;-65
2021/09/28 12:01:28;;;;;;;9.93;5.88;;;22.20;99.90;;;;;;5051107;28;20237;-65
2021/09/28 12:09:29;;;;;;;11.93;6.20;;;22.60;99.90;;;;;;5054289;28;20186;-65
2021/09/28 12:12:08;;;;;;;13.87;6.63;;;22.30;99.90;;;;;;5051085;28;20545;-65
2021/09/28 12:14:36;;;;;;;8.43;5.97;;;22.40;99.90;;;;;;5068007;28;20178;-64
2021/09/28 12:17:23;;;;;;;11.25;6.75;;;22.50;99.90;;;;;;5071257;28;20182;-65
2021/09/28 12:19:53;;;;;;;11.80;6.60;;;22.80;99.90;;;;;;5052279;28;20237;-66
2021/09/28 12:22:29;;;;;;;10.50;6.50;;;22.90;99.90;;;;;;5051296;28;20190;-65
2021/09/28 12:24:55;;;;;;;11.57;6.32;;;22.90;99.90;;;;;;5069209;28;20710;-66
2021/09/28 12:27:23;;;;;;;11.18;5.90;;;22.90;99.90;;;;;;5071194;28;20228;-65
2021/09/28 12:29:50;;;;;;;8.38;6.30;;;23.10;99.90;;;;;;5053493;28;20202;-65
2021/09/28 12:32:24;;;;;;;7.40;5.57;;;23.00;99.90;;;;;;5064387;28;20190;-65
2021/09/28 12:35:29;;;;;;;9.60;5.60;;;23.10;99.90;;;;;;5070104;28;20174;-64
2021/09/28 12:37:58;;;;;;;6.20;5.60;;;23.10;99.90;;;;;;5050370;28;20198;-66
2021/09/28 12:40:31;;;;;;;10.27;6.13;;;22.80;99.90;;;;;;5054501;28;20206;-65
2021/09/28 12:43:09;;;;;;;9.23;5.53;;;22.80;99.90;;;;;;5072517;28;20190;-64
2021/09/28 12:45:44;;;;;;;10.00;5.78;;;22.80;99.90;;;;;;5063528;28;20275;-65